Time;durP1;ratioP1;P1;durP2;ratioP2;P2;SDS_P1;SDS_P2;PMS_P1;PMS_P2;Temp;Humidity;BMP_temperature;BMP_pressure;BME280_temperature;BME280_humidity;BME280_pressure;Samples;Min_cycle;Max_cycle;Signal;HPM_P1;HPM_P2
2021/12/28 00:00:14;;;;;;;9.57;9.27;;;3.40;99.90;;;;;;5004181;28;20265;-83
2021/12/28 00:02:42;;;;;;;9.50;9.20;;;3.40;99.90;;;;;;5003289;28;20280;-83
2021/12/28 00:05:10;;;;;;;9.70;9.40;;;3.40;99.90;;;;;;5004543;28;20225;-84
2021/12/28 00:07:40;;;;;;;9.80;9.50;;;3.40;99.90;;;;;;5003882;28;20288;-84
2021/12/28 00:10:11;;;;;;;9.70;9.40;;;3.40;99.90;;;;;;5004199;28;20241;-83
2021/12/28 00:12:39;;;;;;;9.87;9.57;;;3.50;99.90;;;;;;5003435;28;20264;-84
2021/12/28 00:15:30;;;;;;;9.93;9.63;;;3.50;99.90;;;;;;5003231;28;20256;-84
2021/12/28 00:18:02;;;;;;;9.83;9.53;;;3.50;99.90;;;;;;5003785;28;20244;-84
2021/12/28 00:20:33;;;;;;;9.70;9.40;;;3.50;99.90;;;;;;5003829;28;20272;-83
2021/12/28 00:23:06;;;;;;;9.70;9.40;;;3.50;99.90;;;;;;5002562;28;20291;-83
2021/12/28 00:25:35;;;;;;;9.80;9.50;;;3.60;99.90;;;;;;5004518;28;20241;-83
2021/12/28 00:28:04;;;;;;;10.00;9.70;;;3.60;99.90;;;;;;5004706;28;20233;-83
2021/12/28 00:30:32;;;;;;;9.77;9.47;;;3.60;99.90;;;;;;5005034;28;20404;-83
2021/12/28 00:33:01;;;;;;;9.93;9.63;;;3.70;99.90;;;;;;5004819;28;20225;-83
2021/12/28 00:35:32;;;;;;;9.93;9.63;;;3.70;99.90;;;;;;5005328;28;20690;-83
2021/12/28 00:38:02;;;;;;;9.90;9.60;;;3.70;99.90;;;;;;5005407;28;20232;-83
2021/12/28 00:40:30;;;;;;;9.97;9.67;;;3.70;99.90;;;;;;5006026;28;20319;-82
2021/12/28 00:42:58;;;;;;;10.00;9.70;;;3.70;99.90;;;;;;5005756;28;20299;-84
2021/12/28 00:45:26;;;;;;;9.90;9.60;;;3.70;99.90;;;;;;5006659;28;20261;-83
2021/12/28 00:47:54;;;;;;;9.87;9.57;;;3.70;99.90;;;;;;5006252;28;20232;-84
2021/12/28 00:50:23;;;;;;;9.90;9.60;;;3.80;99.90;;;;;;5004319;28;20232;-85
2021/12/28 00:52:51;;;;;;;9.80;9.50;;;3.80;99.90;;;;;;5004674;28;20229;-83
2021/12/28 00:55:21;;;;;;;9.90;9.60;;;3.80;99.90;;;;;;5004946;28;20233;-83
2021/12/28 00:57:49;;;;;;;10.00;9.70;;;3.80;99.90;;;;;;5011121;28;20229;-83
2021/12/28 01:00:22;;;;;;;10.03;9.73;;;3.90;99.90;;;;;;5007307;28;20244;-83
2021/12/28 01:02:53;;;;;;;9.80;9.50;;;3.80;99.90;;;;;;5006529;28;20228;-84
2021/12/28 01:05:22;;;;;;;10.00;9.70;;;3.90;99.90;;;;;;5050525;22;20243;-77
2021/12/28 01:07:50;;;;;;;10.10;9.80;;;3.90;99.90;;;;;;5019902;28;20232;-77
2021/12/28 01:10:23;;;;;;;9.83;9.53;;;3.90;99.90;;;;;;5020002;28;20267;-78
2021/12/28 01:12:52;;;;;;;9.90;9.60;;;3.90;99.90;;;;;;5020012;28;20224;-77
2021/12/28 01:15:21;;;;;;;10.03;9.73;;;4.00;99.90;;;;;;5018797;28;20295;-78
2021/12/28 01:17:50;;;;;;;10.20;9.90;;;4.00;99.90;;;;;;5019530;28;20216;-78
2021/12/28 01:20:18;;;;;;;10.00;9.70;;;4.00;99.90;;;;;;5019275;28;20252;-78
2021/12/28 01:22:52;;;;;;;10.00;9.70;;;4.00;99.90;;;;;;5021057;28;20240;-78
2021/12/28 01:25:32;;;;;;;9.83;9.53;;;4.00;99.90;;;;;;5021607;28;20321;-78
2021/12/28 01:28:01;;;;;;;9.90;9.60;;;4.00;99.90;;;;;;5021500;28;20259;-78
2021/12/28 01:30:31;;;;;;;10.00;9.70;;;4.00;99.90;;;;;;5021386;28;20228;-78
2021/12/28 01:33:01;;;;;;;10.17;9.87;;;4.10;99.90;;;;;;5020425;28;20220;-78
2021/12/28 01:35:31;;;;;;;10.00;9.70;;;4.10;99.90;;;;;;5024664;28;20287;-78
2021/12/28 01:38:00;;;;;;;10.10;9.80;;;4.10;99.90;;;;;;5028393;28;20247;-77
2021/12/28 01:40:39;;;;;;;10.00;9.70;;;4.10;99.90;;;;;;5020837;28;20220;-78
2021/12/28 01:43:17;;;;;;;10.03;9.73;;;4.10;99.90;;;;;;5020310;28;20231;-78
2021/12/28 01:48:33;;;;;;;10.10;9.80;;;4.10;99.90;;;;;;5020433;28;20224;-78
2021/12/28 01:51:10;;;;;;;10.00;9.70;;;4.10;99.90;;;;;;5018786;28;20224;-79
2021/12/28 01:53:40;;;;;;;10.07;9.77;;;4.10;99.90;;;;;;5020780;28;20228;-78
2021/12/28 01:56:19;;;;;;;9.87;9.57;;;4.20;99.90;;;;;;5020905;28;20236;-78
2021/12/28 01:58:47;;;;;;;9.90;9.60;;;4.20;99.90;;;;;;5020888;28;20231;-78
2021/12/28 02:01:17;;;;;;;9.83;9.53;;;4.20;99.90;;;;;;5020673;28;20236;-78
2021/12/28 02:03:46;;;;;;;9.63;9.33;;;4.10;99.90;;;;;;5019649;28;20224;-78
2021/12/28 02:06:16;;;;;;;10.00;9.70;;;4.10;99.90;;;;;;5020394;28;20232;-78
2021/12/28 02:08:45;;;;;;;9.93;9.63;;;4.10;99.90;;;;;;5020343;28;20232;-78
2021/12/28 02:11:23;;;;;;;9.90;9.60;;;4.10;99.90;;;;;;5020278;28;20232;-78
2021/12/28 02:13:53;;;;;;;10.00;9.70;;;4.10;99.90;;;;;;5019656;28;20228;-78
2021/12/28 02:16:22;;;;;;;10.00;9.70;;;4.10;99.90;;;;;;5019718;28;20236;-78
2021/12/28 02:18:52;;;;;;;10.10;9.80;;;4.10;99.90;;;;;;5019744;28;20263;-78
2021/12/28 02:21:31;;;;;;;10.00;9.70;;;4.10;99.90;;;;;;5019336;28;20243;-78
2021/12/28 02:24:00;;;;;;;10.07;9.77;;;4.10;99.90;;;;;;5018977;28;20244;-78
2021/12/28 02:26:29;;;;;;;10.10;9.80;;;4.10;99.90;;;;;;5019505;28;20231;-78
2021/12/28 02:28:58;;;;;;;10.10;9.80;;;4.10;99.90;;;;;;5019722;28;20232;-78
2021/12/28 02:31:28;;;;;;;9.93;9.63;;;4.10;99.90;;;;;;5019773;28;20236;-78
2021/12/28 02:33:57;;;;;;;10.00;9.70;;;4.10;99.90;;;;;;5018367;28;20303;-78
2021/12/28 02:36:35;;;;;;;10.10;9.80;;;4.10;99.90;;;;;;5018772;28;20731;-78
2021/12/28 02:39:05;;;;;;;10.00;9.70;;;4.10;99.90;;;;;;5018823;28;20357;-78
2021/12/28 02:41:34;;;;;;;9.93;9.63;;;4.10;99.90;;;;;;5018106;28;20310;-78
2021/12/28 02:44:04;;;;;;;10.00;9.70;;;4.10;99.90;;;;;;5016703;28;20287;-78
2021/12/28 02:46:33;;;;;;;10.00;9.70;;;4.10;99.90;;;;;;5017269;28;20240;-78
2021/12/28 02:49:02;;;;;;;10.00;9.70;;;4.20;99.90;;;;;;5017372;28;20236;-78
2021/12/28 02:51:41;;;;;;;9.90;9.60;;;4.20;99.90;;;;;;5017256;28;20632;-78
2021/12/28 02:54:10;;;;;;;9.93;9.63;;;4.20;99.90;;;;;;5018314;28;20724;-78
2021/12/28 02:56:39;;;;;;;9.97;9.67;;;4.20;99.90;;;;;;5018670;28;20344;-78
2021/12/28 02:59:09;;;;;;;9.73;9.43;;;4.20;99.90;;;;;;5018802;28;20236;-78
2021/12/28 03:01:40;;;;;;;9.83;9.53;;;4.20;99.90;;;;;;5018184;28;20271;-78
2021/12/28 03:04:08;;;;;;;9.70;9.40;;;4.20;99.90;;;;;;5021026;28;20283;-78
2021/12/28 03:06:40;;;;;;;9.70;9.40;;;4.20;99.90;;;;;;5022864;28;20258;-78
2021/12/28 03:09:08;;;;;;;9.87;9.57;;;4.10;99.90;;;;;;5022682;28;20286;-78
2021/12/28 03:11:36;;;;;;;10.07;9.77;;;4.10;99.90;;;;;;5022057;28;20224;-78
2021/12/28 03:14:05;;;;;;;9.80;9.50;;;4.10;99.90;;;;;;5022018;28;20244;-78
2021/12/28 03:16:35;;;;;;;9.80;9.50;;;4.10;99.90;;;;;;5022548;28;20231;-78
2021/12/28 03:19:04;;;;;;;9.73;9.43;;;4.10;99.90;;;;;;5022435;28;20236;-78
2021/12/28 03:21:35;;;;;;;9.70;9.40;;;4.10;99.90;;;;;;5021622;28;20244;-78
2021/12/28 03:24:14;;;;;;;9.80;9.50;;;4.00;99.90;;;;;;5021233;28;20274;-78
2021/12/28 03:26:41;;;;;;;9.77;9.47;;;4.00;99.90;;;;;;5022206;28;20232;-78
2021/12/28 03:29:14;;;;;;;9.90;9.60;;;3.90;99.90;;;;;;5028524;28;20232;-78
2021/12/28 03:31:43;;;;;;;9.80;9.50;;;3.80;99.90;;;;;;5027246;28;20271;-78
2021/12/28 03:34:12;;;;;;;9.73;9.43;;;3.90;99.90;;;;;;5022214;28;20228;-78
2021/12/28 03:36:41;;;;;;;9.73;9.43;;;3.90;99.90;;;;;;5021849;28;20240;-78
2021/12/28 03:41:58;;;;;;;9.60;9.30;;;3.90;99.90;;;;;;5020684;28;20236;-78
2021/12/28 03:44:27;;;;;;;9.50;9.20;;;3.80;99.90;;;;;;5021482;28;20236;-78
2021/12/28 03:46:56;;;;;;;9.60;9.30;;;3.90;99.90;;;;;;5024564;28;20260;-77
2021/12/28 03:49:26;;;;;;;9.60;9.30;;;3.90;99.90;;;;;;5026403;28;20224;-78
2021/12/28 03:51:56;;;;;;;9.60;9.30;;;3.90;99.90;;;;;;5023700;28;20232;-78
2021/12/28 03:54:28;;;;;;;9.63;9.33;;;3.90;99.90;;;;;;5021667;28;20239;-79
2021/12/28 03:56:56;;;;;;;9.60;9.30;;;4.00;99.90;;;;;;5021214;28;20255;-77
2021/12/28 03:59:24;;;;;;;9.50;9.20;;;4.00;99.90;;;;;;5022581;28;20240;-78
2021/12/28 04:01:53;;;;;;;9.90;9.60;;;4.00;99.90;;;;;;5019786;28;20267;-78
2021/12/28 04:04:23;;;;;;;9.70;9.40;;;4.10;99.90;;;;;;5019435;28;20240;-78
2021/12/28 04:06:52;;;;;;;9.70;9.40;;;4.10;99.90;;;;;;5019644;28;20282;-78
2021/12/28 04:09:45;;;;;;;9.80;9.50;;;4.10;99.90;;;;;;5020391;28;20296;-78
2021/12/28 04:12:17;;;;;;;9.80;9.50;;;4.10;99.90;;;;;;5020442;28;20269;-78
2021/12/28 04:14:47;;;;;;;9.70;9.40;;;4.10;99.90;;;;;;5018801;28;20232;-78
2021/12/28 04:17:16;;;;;;;9.70;9.40;;;4.20;99.90;;;;;;5019659;28;20240;-78
2021/12/28 04:19:46;;;;;;;9.70;9.40;;;4.20;99.90;;;;;;5019836;28;20310;-78
2021/12/28 04:22:15;;;;;;;9.83;9.53;;;4.30;99.90;;;;;;5019478;28;20236;-78
2021/12/28 04:24:44;;;;;;;9.80;9.50;;;4.30;99.90;;;;;;5026211;28;20232;-79
2021/12/28 04:27:26;;;;;;;9.70;9.40;;;4.30;99.90;;;;;;5024284;28;20240;-78
2021/12/28 04:29:54;;;;;;;9.50;9.20;;;4.40;99.90;;;;;;5026974;28;20228;-78
2021/12/28 04:32:21;;;;;;;9.70;9.40;;;4.40;99.90;;;;;;5022877;28;20224;-78
2021/12/28 04:34:51;;;;;;;9.90;9.60;;;4.50;99.90;;;;;;5021868;28;20233;-78
2021/12/28 04:37:20;;;;;;;9.60;9.30;;;4.50;99.90;;;;;;5021367;28;20243;-78
2021/12/28 04:39:50;;;;;;;9.70;9.40;;;4.60;99.90;;;;;;5024928;28;20228;-78
2021/12/28 04:42:32;;;;;;;9.57;9.27;;;4.60;99.90;;;;;;5023934;28;20228;-78
2021/12/28 04:44:59;;;;;;;9.67;9.37;;;4.60;99.90;;;;;;5023233;28;20249;-78
2021/12/28 04:47:27;;;;;;;9.70;9.40;;;4.50;99.90;;;;;;5022183;28;20299;-78
2021/12/28 04:49:56;;;;;;;9.57;9.27;;;4.50;99.90;;;;;;5022836;28;20239;-79
2021/12/28 04:52:28;;;;;;;9.60;9.30;;;4.50;99.90;;;;;;5022245;28;20264;-78
2021/12/28 04:54:56;;;;;;;9.60;9.30;;;4.50;99.90;;;;;;5022003;28;20236;-79
2021/12/28 04:57:33;;;;;;;9.70;9.40;;;4.50;99.90;;;;;;5021937;28;20235;-78
2021/12/28 05:00:03;;;;;;;9.53;9.23;;;4.60;99.90;;;;;;5021390;28;20383;-78
2021/12/28 05:02:32;;;;;;;9.70;9.40;;;4.50;99.90;;;;;;5021164;28;20240;-79
2021/12/28 05:05:03;;;;;;;9.80;9.50;;;4.60;99.90;;;;;;5020855;28;20240;-78
2021/12/28 05:07:31;;;;;;;9.83;9.53;;;4.60;99.90;;;;;;5020905;28;20227;-78
2021/12/28 05:10:01;;;;;;;9.57;9.27;;;4.50;99.90;;;;;;5021063;28;20290;-78
2021/12/28 05:12:39;;;;;;;9.77;9.47;;;4.50;99.90;;;;;;5020699;28;20291;-79
2021/12/28 05:15:09;;;;;;;9.70;9.40;;;4.60;99.90;;;;;;5003561;28;20292;-79
2021/12/28 05:17:38;;;;;;;9.73;9.43;;;4.50;99.90;;;;;;5000063;28;20236;-79
2021/12/28 05:20:07;;;;;;;10.00;9.70;;;4.60;99.90;;;;;;5009289;28;20288;-78
2021/12/28 05:22:35;;;;;;;9.67;9.37;;;4.50;99.90;;;;;;5000706;28;20331;-78
2021/12/28 05:25:08;;;;;;;9.70;9.40;;;4.60;99.90;;;;;;5001048;28;20291;-78
2021/12/28 05:27:41;;;;;;;9.70;9.40;;;4.60;99.90;;;;;;5006176;28;20228;-78
2021/12/28 05:30:16;;;;;;;9.50;9.20;;;4.60;99.90;;;;;;5014402;28;20256;-78
2021/12/28 05:32:45;;;;;;;9.50;9.20;;;4.60;99.90;;;;;;5014978;28;20295;-78
2021/12/28 05:35:14;;;;;;;9.37;9.07;;;4.60;99.90;;;;;;5015216;28;20232;-79
2021/12/28 05:37:44;;;;;;;9.50;9.20;;;4.60;99.90;;;;;;5014423;28;20240;-78
2021/12/28 05:40:14;;;;;;;9.43;9.13;;;4.60;99.90;;;;;;5012297;28;20237;-78
2021/12/28 05:42:52;;;;;;;9.60;9.30;;;4.60;99.90;;;;;;5010870;28;20237;-78
2021/12/28 05:45:22;;;;;;;9.33;9.03;;;4.70;99.90;;;;;;5011900;28;20248;-79
2021/12/28 05:47:50;;;;;;;9.57;9.27;;;4.70;99.90;;;;;;5012038;28;20233;-79
2021/12/28 05:50:20;;;;;;;9.63;9.33;;;4.70;99.90;;;;;;5006018;28;20240;-78
2021/12/28 05:52:49;;;;;;;9.50;9.20;;;4.70;99.90;;;;;;5009822;28;20252;-78
2021/12/28 05:55:19;;;;;;;9.50;9.20;;;4.70;99.90;;;;;;5009091;28;20217;-78
2021/12/28 05:57:52;;;;;;;9.57;9.27;;;4.70;99.90;;;;;;5011260;28;20229;-78
2021/12/28 06:00:19;;;;;;;9.70;9.40;;;4.70;99.90;;;;;;5008288;28;20338;-79
2021/12/28 06:02:47;;;;;;;9.60;9.30;;;4.70;99.90;;;;;;5006722;28;20225;-80
2021/12/28 06:05:17;;;;;;;9.47;9.17;;;4.70;99.90;;;;;;4988748;28;20237;-79
2021/12/28 06:07:46;;;;;;;9.70;9.40;;;4.70;99.90;;;;;;4980472;28;20241;-79
2021/12/28 06:10:16;;;;;;;9.73;9.43;;;4.70;99.90;;;;;;4980555;28;20241;-78
2021/12/28 06:12:45;;;;;;;9.40;9.10;;;4.70;99.90;;;;;;4979635;28;20249;-79
2021/12/28 06:15:26;;;;;;;9.80;9.50;;;4.70;99.90;;;;;;4980384;28;20245;-78
2021/12/28 06:17:53;;;;;;;9.60;9.30;;;4.70;99.90;;;;;;4984268;28;20249;-78
2021/12/28 06:20:23;;;;;;;9.50;9.20;;;4.70;99.90;;;;;;4984229;28;20221;-79
2021/12/28 06:22:52;;;;;;;9.53;9.23;;;4.70;99.90;;;;;;4981599;28;20257;-80
2021/12/28 06:25:21;;;;;;;9.53;9.23;;;4.70;99.90;;;;;;4982712;28;20226;-80
2021/12/28 06:27:50;;;;;;;9.50;9.20;;;4.70;99.90;;;;;;4983567;28;20257;-80
2021/12/28 06:30:30;;;;;;;9.33;9.03;;;4.70;99.90;;;;;;4981258;28;20229;-78
2021/12/28 06:32:59;;;;;;;9.40;9.10;;;4.70;99.90;;;;;;4979593;28;20312;-78
2021/12/28 06:35:28;;;;;;;9.20;8.90;;;4.70;99.90;;;;;;5007712;28;20322;-78
2021/12/28 06:37:57;;;;;;;9.40;9.10;;;4.70;99.90;;;;;;5020061;28;20229;-78
2021/12/28 06:40:27;;;;;;;9.40;9.10;;;4.70;99.90;;;;;;5021803;28;20243;-78
2021/12/28 06:42:56;;;;;;;9.40;9.10;;;4.70;99.90;;;;;;5021008;28;20240;-78
2021/12/28 06:45:34;;;;;;;9.20;8.90;;;4.70;99.90;;;;;;5021118;28;20224;-78
2021/12/28 06:48:03;;;;;;;9.33;9.03;;;4.70;99.90;;;;;;5021823;28;20582;-78
2021/12/28 06:50:33;;;;;;;9.47;9.17;;;4.70;99.90;;;;;;5021994;28;20298;-80
2021/12/28 06:53:02;;;;;;;9.30;9.00;;;4.60;99.90;;;;;;5022440;28;20231;-81
2021/12/28 06:55:32;;;;;;;9.37;9.07;;;4.70;99.90;;;;;;5023465;28;20232;-80
2021/12/28 06:58:01;;;;;;;9.50;9.20;;;4.70;99.90;;;;;;4983988;28;20238;-80
2021/12/28 07:00:39;;;;;;;9.50;9.20;;;4.60;99.90;;;;;;4984521;28;20237;-79
2021/12/28 07:03:09;;;;;;;9.60;9.30;;;4.60;99.90;;;;;;4983525;28;20264;-80
2021/12/28 07:05:37;;;;;;;9.53;9.23;;;4.60;99.90;;;;;;5042481;22;20239;-87
2021/12/28 07:08:06;;;;;;;9.87;9.57;;;4.60;99.90;;;;;;5039017;28;20282;-88
2021/12/28 07:10:40;;;;;;;10.27;9.97;;;4.60;99.90;;;;;;5039800;28;20231;-87
2021/12/28 07:13:08;;;;;;;10.30;10.00;;;4.50;99.90;;;;;;5039636;28;20227;-87
2021/12/28 07:15:38;;;;;;;10.23;9.93;;;4.50;99.90;;;;;;5026795;28;20236;-86
2021/12/28 07:18:06;;;;;;;10.30;10.00;;;4.50;99.90;;;;;;5019862;28;20278;-87
2021/12/28 07:20:34;;;;;;;10.00;9.70;;;4.50;99.90;;;;;;5020526;28;20236;-86
2021/12/28 07:23:02;;;;;;;10.17;9.87;;;4.50;99.90;;;;;;5032439;28;20250;-86
2021/12/28 07:25:30;;;;;;;10.30;10.00;;;4.40;99.90;;;;;;5022946;28;20290;-87
2021/12/28 07:27:58;;;;;;;10.07;9.77;;;4.40;99.90;;;;;;5021556;28;20233;-85
2021/12/28 07:30:32;;;;;;;10.43;10.13;;;4.30;99.90;;;;;;5019568;28;20228;-85
2021/12/28 07:33:01;;;;;;;10.37;10.07;;;4.30;99.90;;;;;;5019624;28;20262;-87
2021/12/28 07:35:29;;;;;;;10.23;9.93;;;4.30;99.90;;;;;;5020303;28;20287;-86
2021/12/28 07:37:57;;;;;;;10.17;9.87;;;4.30;99.90;;;;;;5020979;28;20236;-87
2021/12/28 07:40:25;;;;;;;10.37;10.07;;;4.30;99.90;;;;;;5020264;28;20228;-87
2021/12/28 07:42:53;;;;;;;10.40;10.10;;;4.20;99.90;;;;;;5019672;28;20243;-87
2021/12/28 07:45:22;;;;;;;10.23;9.93;;;4.20;99.90;;;;;;5020151;28;20285;-86
2021/12/28 07:47:50;;;;;;;10.37;10.07;;;4.20;99.90;;;;;;5019933;28;20243;-85
2021/12/28 07:50:20;;;;;;;10.30;10.00;;;4.20;99.90;;;;;;5018768;28;20232;-87
2021/12/28 07:52:49;;;;;;;10.20;9.90;;;4.20;99.90;;;;;;5019549;28;20253;-84
2021/12/28 07:55:18;;;;;;;10.10;9.80;;;4.20;99.90;;;;;;5021066;28;20236;-87
2021/12/28 07:57:46;;;;;;;9.97;9.67;;;4.20;99.90;;;;;;5019356;28;20240;-86
2021/12/28 08:00:18;;;;;;;9.87;9.57;;;4.20;99.90;;;;;;5016121;28;20236;-87
2021/12/28 08:03:00;;;;;;;10.00;9.70;;;4.20;99.90;;;;;;5018784;28;20287;-86
2021/12/28 08:05:29;;;;;;;9.70;9.40;;;4.20;99.90;;;;;;5019226;28;20239;-86
2021/12/28 08:07:57;;;;;;;9.80;9.50;;;4.10;99.90;;;;;;5020415;28;20235;-86
2021/12/28 08:10:25;;;;;;;9.87;9.57;;;4.10;99.90;;;;;;5030673;28;20232;-89
2021/12/28 08:12:54;;;;;;;10.00;9.70;;;4.10;99.90;;;;;;5021443;28;20243;-85
2021/12/28 08:15:23;;;;;;;9.97;9.67;;;4.10;99.90;;;;;;5022872;28;20224;-86
2021/12/28 08:17:51;;;;;;;9.90;9.60;;;4.10;99.90;;;;;;5023133;28;20232;-86
2021/12/28 08:20:20;;;;;;;10.00;9.70;;;4.00;99.90;;;;;;5022680;28;20235;-87
2021/12/28 08:22:50;;;;;;;9.70;9.40;;;4.10;99.90;;;;;;5020619;28;20227;-87
2021/12/28 08:25:21;;;;;;;9.80;9.50;;;4.00;99.90;;;;;;5020585;28;20287;-87
2021/12/28 08:27:49;;;;;;;9.90;9.60;;;4.10;99.90;;;;;;5020839;28;20224;-86
2021/12/28 08:30:17;;;;;;;9.90;9.60;;;4.00;99.90;;;;;;5019377;28;20291;-87
2021/12/28 08:32:46;;;;;;;10.00;9.70;;;4.00;99.90;;;;;;5018237;28;20236;-87
2021/12/28 08:35:15;;;;;;;9.90;9.60;;;4.10;99.90;;;;;;5018496;28;20291;-86
2021/12/28 08:37:43;;;;;;;9.80;9.50;;;4.10;99.90;;;;;;5019126;28;20294;-87
2021/12/28 08:40:16;;;;;;;9.90;9.60;;;4.10;99.90;;;;;;5019593;28;20224;-87
2021/12/28 08:42:44;;;;;;;9.90;9.60;;;4.10;99.90;;;;;;5019537;28;20267;-87
2021/12/28 08:45:12;;;;;;;9.57;9.27;;;4.10;99.90;;;;;;5018371;28;20240;-87
2021/12/28 08:47:41;;;;;;;9.70;9.40;;;4.10;99.90;;;;;;5020156;28;20295;-86
2021/12/28 08:50:11;;;;;;;9.70;9.40;;;4.10;99.90;;;;;;5021203;28;20238;-86
2021/12/28 08:52:39;;;;;;;9.50;9.20;;;4.10;99.90;;;;;;5021074;28;20711;-86
2021/12/28 08:55:09;;;;;;;9.57;9.27;;;4.00;99.90;;;;;;5020425;28;20295;-86
2021/12/28 08:57:38;;;;;;;9.50;9.20;;;4.00;99.90;;;;;;5021299;28;20259;-88
2021/12/28 09:00:12;;;;;;;9.43;9.13;;;4.10;99.90;;;;;;5018049;28;20270;-86
2021/12/28 09:02:40;;;;;;;9.77;9.47;;;4.10;99.90;;;;;;5020211;28;20291;-86
2021/12/28 09:05:09;;;;;;;9.90;9.60;;;4.10;99.90;;;;;;5020269;28;20287;-87
2021/12/28 09:07:37;;;;;;;9.90;9.60;;;4.20;99.90;;;;;;5020217;28;20236;-87
2021/12/28 09:10:07;;;;;;;9.87;9.57;;;4.20;99.90;;;;;;5022209;28;20291;-84
2021/12/28 09:12:35;;;;;;;9.83;9.53;;;4.20;99.90;;;;;;5023808;28;20239;-85
2021/12/28 09:15:14;;;;;;;9.70;9.40;;;4.30;99.90;;;;;;5025304;28;20233;-87
2021/12/28 09:17:43;;;;;;;9.80;9.50;;;4.30;99.90;;;;;;5025275;28;20228;-84
2021/12/28 09:20:14;;;;;;;9.40;9.10;;;4.30;99.90;;;;;;5022192;28;20263;-85
2021/12/28 09:22:42;;;;;;;9.60;9.30;;;4.30;99.90;;;;;;5019241;28;20294;-83
2021/12/28 09:25:11;;;;;;;9.50;9.20;;;4.40;99.90;;;;;;5024031;28;20284;-86
2021/12/28 09:27:41;;;;;;;9.60;9.30;;;4.40;99.90;;;;;;5021694;28;20263;-85
2021/12/28 09:30:12;;;;;;;9.60;9.30;;;4.40;99.90;;;;;;5021388;28;20243;-86
2021/12/28 09:32:40;;;;;;;9.37;9.07;;;4.50;99.90;;;;;;5022677;28;20232;-85
2021/12/28 09:35:10;;;;;;;9.40;9.10;;;4.50;99.90;;;;;;5022496;28;20236;-85
2021/12/28 09:37:38;;;;;;;9.60;9.30;;;4.50;99.90;;;;;;5030251;28;20265;-85
2021/12/28 09:40:10;;;;;;;9.33;9.03;;;4.60;99.90;;;;;;5035288;28;20255;-86
2021/12/28 09:42:38;;;;;;;9.43;9.13;;;4.70;99.90;;;;;;5035374;28;20220;-86
2021/12/28 09:45:08;;;;;;;9.53;9.23;;;4.70;99.90;;;;;;5039348;28;20248;-83
2021/12/28 09:47:37;;;;;;;9.50;9.20;;;4.80;99.90;;;;;;5039434;28;20228;-83
2021/12/28 09:50:07;;;;;;;9.50;9.20;;;4.80;99.90;;;;;;5036508;28;20226;-83
2021/12/28 09:52:35;;;;;;;9.70;9.40;;;4.90;99.90;;;;;;5036530;28;20216;-83
2021/12/28 09:55:02;;;;;;;9.80;9.50;;;4.90;99.90;;;;;;5034468;28;20228;-84
2021/12/28 09:57:30;;;;;;;9.80;9.50;;;5.00;99.90;;;;;;5034037;28;20236;-84
2021/12/28 09:59:58;;;;;;;9.70;9.40;;;5.00;99.90;;;;;;5034568;28;20211;-83
2021/12/28 10:02:26;;;;;;;9.87;9.57;;;5.10;99.90;;;;;;5037388;28;20212;-84
2021/12/28 10:04:58;;;;;;;9.60;9.30;;;5.20;99.90;;;;;;5038212;28;20224;-84
2021/12/28 10:07:30;;;;;;;9.57;9.27;;;5.20;99.90;;;;;;5038325;28;20224;-86
2021/12/28 10:09:58;;;;;;;9.67;9.37;;;5.30;99.90;;;;;;5037252;28;20216;-85
2021/12/28 10:12:32;;;;;;;9.97;9.67;;;5.30;99.90;;;;;;5039399;28;20208;-86
2021/12/28 10:15:02;;;;;;;9.53;9.23;;;5.40;99.90;;;;;;5040049;28;20239;-85
2021/12/28 10:17:33;;;;;;;9.80;9.50;;;5.40;99.90;;;;;;5039572;28;20224;-85
2021/12/28 10:20:10;;;;;;;9.67;9.37;;;5.40;99.90;;;;;;5040783;28;20232;-86
2021/12/28 10:22:42;;;;;;;9.50;9.20;;;5.50;99.90;;;;;;5041374;28;20270;-85
2021/12/28 10:25:14;;;;;;;9.50;9.20;;;5.50;99.90;;;;;;5043628;28;20208;-87
2021/12/28 10:27:45;;;;;;;9.63;9.33;;;5.60;99.90;;;;;;5043356;28;20224;-86
2021/12/28 10:30:17;;;;;;;9.87;9.57;;;5.60;99.90;;;;;;5043612;28;20272;-86
2021/12/28 10:32:48;;;;;;;9.87;9.57;;;5.70;99.90;;;;;;5042632;28;20224;-84
2021/12/28 10:35:21;;;;;;;9.80;9.50;;;5.70;99.90;;;;;;5042067;28;20279;-84
2021/12/28 10:37:52;;;;;;;9.50;9.20;;;5.80;99.90;;;;;;5043131;28;20208;-86
2021/12/28 10:40:28;;;;;;;9.60;9.30;;;5.80;99.90;;;;;;5043335;28;20240;-85
2021/12/28 10:43:04;;;;;;;9.43;9.13;;;5.90;99.90;;;;;;5042464;28;20251;-88
2021/12/28 10:45:38;;;;;;;9.60;9.30;;;6.00;99.90;;;;;;5041369;28;20290;-82
2021/12/28 10:48:12;;;;;;;9.50;9.20;;;6.10;99.90;;;;;;5043175;28;20267;-83
2021/12/28 10:50:46;;;;;;;9.50;9.20;;;6.30;99.90;;;;;;5043337;28;20219;-87
2021/12/28 10:53:20;;;;;;;9.23;8.93;;;6.40;99.90;;;;;;5042243;28;20225;-87
2021/12/28 10:55:53;;;;;;;9.23;8.93;;;6.60;99.90;;;;;;5043082;28;20218;-86
2021/12/28 10:58:49;;;;;;;9.20;8.90;;;6.80;99.90;;;;;;5043296;28;20267;-85
2021/12/28 11:01:23;;;;;;;9.30;9.00;;;7.00;99.90;;;;;;5041741;28;20247;-86
2021/12/28 11:03:54;;;;;;;9.23;8.93;;;7.10;99.90;;;;;;5031131;28;20234;-86
2021/12/28 11:06:27;;;;;;;9.33;9.03;;;7.20;99.90;;;;;;5030618;28;20272;-85
2021/12/28 11:09:18;;;;;;;9.53;9.23;;;7.20;99.90;;;;;;5034899;28;20296;-86
2021/12/28 11:11:46;;;;;;;9.40;9.10;;;7.30;99.90;;;;;;5028836;28;20240;-85
2021/12/28 11:14:16;;;;;;;9.50;9.20;;;7.40;99.90;;;;;;5022920;28;20233;-85
2021/12/28 11:16:51;;;;;;;9.43;9.13;;;7.40;99.90;;;;;;5028508;28;20307;-85
2021/12/28 11:19:26;;;;;;;9.17;8.87;;;7.40;99.90;;;;;;5027322;28;20235;-85
2021/12/28 11:22:07;;;;;;;9.37;9.07;;;7.40;99.90;;;;;;5025532;28;20235;-86
2021/12/28 11:24:39;;;;;;;8.80;8.50;;;7.30;99.90;;;;;;5026642;28;20244;-84
2021/12/28 11:27:10;;;;;;;9.00;8.70;;;7.30;99.90;;;;;;5025105;28;20216;-87
2021/12/28 11:29:40;;;;;;;9.20;8.90;;;7.30;99.90;;;;;;5024053;28;20289;-86
2021/12/28 11:32:17;;;;;;;9.00;8.70;;;7.30;99.90;;;;;;5025122;28;20258;-84
2021/12/28 11:34:46;;;;;;;9.10;8.80;;;7.30;99.90;;;;;;5026085;28;20231;-84
2021/12/28 11:37:20;;;;;;;8.80;8.50;;;7.30;99.90;;;;;;5026149;28;20323;-82
2021/12/28 11:39:51;;;;;;;9.03;8.73;;;7.20;99.90;;;;;;5026167;28;20220;-84
2021/12/28 11:42:26;;;;;;;9.20;8.90;;;7.30;99.90;;;;;;5025787;28;20232;-83
2021/12/28 11:44:55;;;;;;;9.00;8.70;;;7.30;99.90;;;;;;5025772;28;20236;-84
2021/12/28 11:47:23;;;;;;;9.07;8.77;;;7.30;99.90;;;;;;5025289;28;20255;-84
2021/12/28 11:49:54;;;;;;;9.10;8.80;;;7.30;99.90;;;;;;5024544;28;20243;-83
2021/12/28 11:52:23;;;;;;;9.03;8.73;;;7.30;99.90;;;;;;5026579;28;20236;-83
2021/12/28 11:54:56;;;;;;;8.90;8.60;;;7.40;99.90;;;;;;5025175;28;20225;-84
2021/12/28 11:57:27;;;;;;;9.00;8.70;;;7.40;99.90;;;;;;5026174;28;20248;-84
2021/12/28 11:59:57;;;;;;;8.80;8.50;;;7.40;99.90;;;;;;5022281;28;20236;-82
2021/12/28 12:02:38;;;;;;;9.00;8.70;;;7.40;99.90;;;;;;5025250;28;20240;-83
2021/12/28 12:05:15;;;;;;;8.80;8.50;;;7.40;99.90;;;;;;5026572;28;20244;-84
2021/12/28 12:07:45;;;;;;;8.90;8.60;;;7.40;99.90;;;;;;5031625;28;20239;-83
2021/12/28 12:10:32;;;;;;;8.90;8.60;;;7.50;99.90;;;;;;5027323;28;20232;-83
2021/12/28 12:13:16;;;;;;;9.07;8.77;;;7.50;99.90;;;;;;5026362;28;20232;-84
2021/12/28 12:15:48;;;;;;;9.13;8.83;;;7.60;99.90;;;;;;5027092;28;20258;-83
2021/12/28 12:18:20;;;;;;;9.20;8.90;;;7.60;99.90;;;;;;5026864;28;20232;-83
2021/12/28 12:20:56;;;;;;;9.00;8.70;;;7.60;99.90;;;;;;5023278;28;20236;-85
2021/12/28 12:23:29;;;;;;;9.00;8.70;;;7.70;99.90;;;;;;5024815;28;20231;-83
2021/12/28 12:26:09;;;;;;;9.00;8.70;;;7.70;99.90;;;;;;5025226;28;20236;-83
2021/12/28 12:28:46;;;;;;;9.20;8.90;;;7.80;99.90;;;;;;5025850;28;20242;-83
2021/12/28 12:31:33;;;;;;;9.20;8.90;;;7.80;99.90;;;;;;5026088;28;20274;-84
2021/12/28 12:34:04;;;;;;;9.20;8.90;;;7.90;99.90;;;;;;5026299;28;20232;-83
2021/12/28 12:36:38;;;;;;;9.00;8.70;;;7.90;99.90;;;;;;5025725;28;20236;-83
2021/12/28 12:39:09;;;;;;;8.87;8.57;;;7.80;99.90;;;;;;5022579;28;20236;-85
2021/12/28 12:41:47;;;;;;;8.73;8.43;;;7.80;99.90;;;;;;5020906;28;20232;-85
2021/12/28 12:44:21;;;;;;;8.70;8.40;;;7.90;99.90;;;;;;5020773;28;20268;-84
2021/12/28 12:46:52;;;;;;;8.50;8.30;;;7.90;99.90;;;;;;5022046;28;20235;-85
2021/12/28 12:49:29;;;;;;;8.70;8.47;;;8.00;99.90;;;;;;5020469;28;20232;-84
2021/12/28 12:52:01;;;;;;;8.73;8.50;;;8.00;99.90;;;;;;5021131;28;20294;-85
2021/12/28 12:54:43;;;;;;;9.10;8.80;;;8.00;99.90;;;;;;5028411;28;20260;-85
2021/12/28 12:57:23;;;;;;;9.00;8.70;;;8.00;99.90;;;;;;5023427;28;20275;-85
2021/12/28 12:59:59;;;;;;;9.20;8.90;;;8.10;99.90;;;;;;5022258;28;20252;-85
2021/12/28 13:02:36;;;;;;;9.27;8.97;;;8.10;99.90;;;;;;5021386;28;20236;-84
2021/12/28 13:05:28;;;;;;;9.10;8.80;;;8.10;99.90;;;;;;5041898;22;20235;-83
2021/12/28 13:07:56;;;;;;;9.20;8.90;;;8.10;99.90;;;;;;5038188;28;20220;-78
2021/12/28 13:10:33;;;;;;;8.93;8.63;;;8.20;99.90;;;;;;5039395;28;20228;-81
2021/12/28 13:13:02;;;;;;;9.40;9.10;;;8.20;99.90;;;;;;5015810;28;20225;-80
2021/12/28 13:15:33;;;;;;;9.60;9.30;;;8.20;99.90;;;;;;5012686;28;20243;-81
2021/12/28 13:18:09;;;;;;;9.40;9.10;;;8.20;99.90;;;;;;5011954;28;20224;-82
2021/12/28 13:20:39;;;;;;;9.40;9.10;;;8.20;99.90;;;;;;5012756;28;20221;-81